createdAt,value
2023-05-20T00:00:36.677Z,19.62
2023-05-20T00:01:43.879Z,19.63
2023-05-20T00:02:46.333Z,19.64
2023-05-20T00:03:49.575Z,19.60
2023-05-20T00:04:52.280Z,19.59
2023-05-20T00:05:54.767Z,19.57
2023-05-20T00:06:57.568Z,19.57
2023-05-20T00:09:10.066Z,19.59
2023-05-20T00:10:13.026Z,19.42
2023-05-20T00:11:15.268Z,19.41
2023-05-20T00:12:17.621Z,19.42
2023-05-20T00:13:19.936Z,19.43
2023-05-20T00:14:22.123Z,19.48
2023-05-20T00:15:25.566Z,19.49
2023-05-20T00:16:30.774Z,19.50
2023-05-20T00:17:36.500Z,19.53
2023-05-20T00:18:42.163Z,19.55
2023-05-20T00:19:46.793Z,19.51
2023-05-20T00:20:59.728Z,19.48
2023-05-20T00:22:03.546Z,19.45
2023-05-20T00:23:05.911Z,19.39
2023-05-20T00:24:09.784Z,19.33
2023-05-20T00:25:12.049Z,19.29
2023-05-20T00:26:15.996Z,19.29
2023-05-20T00:27:20.141Z,19.28
2023-05-20T00:28:22.372Z,19.27
2023-05-20T00:30:42.783Z,19.41
2023-05-20T00:31:45.062Z,19.28
2023-05-20T00:32:47.379Z,19.30
2023-05-20T00:33:50.041Z,19.30
2023-05-20T00:34:56.643Z,19.31
2023-05-20T00:35:58.868Z,19.35
2023-05-20T00:37:01.510Z,19.36
2023-05-20T00:38:04.275Z,19.32
2023-05-20T00:40:16.346Z,19.38
2023-05-20T00:41:18.705Z,19.26
2023-05-20T00:42:24.571Z,19.26
2023-05-20T00:43:27.452Z,19.27
2023-05-20T00:44:29.771Z,19.25
2023-05-20T00:45:32.464Z,19.26
2023-05-20T00:46:35.252Z,19.26
2023-05-20T00:47:38.485Z,19.26
2023-05-20T00:48:44.173Z,19.29
2023-05-20T00:49:50.442Z,19.31
2023-05-20T00:52:09.060Z,19.41
2023-05-20T00:53:12.524Z,19.29
2023-05-20T00:54:14.913Z,19.31
2023-05-20T00:55:17.608Z,19.33
2023-05-20T00:56:21.680Z,19.34
2023-05-20T00:57:27.989Z,19.35
2023-05-20T00:58:31.277Z,19.36
2023-05-20T00:59:35.821Z,19.39
2023-05-20T01:00:38.733Z,19.41
2023-05-20T01:01:41.741Z,19.42
2023-05-20T01:02:44.417Z,19.43
2023-05-20T01:03:47.286Z,19.42
2023-05-20T01:04:49.767Z,19.39
2023-05-20T01:05:52.308Z,19.33
2023-05-20T01:06:54.819Z,19.27
2023-05-20T01:07:57.364Z,19.23
2023-05-20T01:08:59.818Z,19.19
2023-05-20T01:10:02.278Z,19.19
2023-05-20T01:11:30.801Z,19.19
2023-05-20T01:12:52.293Z,19.24
2023-05-20T01:13:57.845Z,19.28
2023-05-20T01:15:11.374Z,19.34
2023-05-20T01:16:17.061Z,19.37
2023-05-20T01:17:20.454Z,19.39
2023-05-20T01:18:23.408Z,19.41
2023-05-20T01:20:42.228Z,19.54
2023-05-20T01:21:44.926Z,19.46
2023-05-20T01:22:49.303Z,19.49
2023-05-20T01:23:51.512Z,19.48
2023-05-20T01:24:53.932Z,19.49
2023-05-20T01:25:56.217Z,19.51
2023-05-20T01:26:58.720Z,19.55
2023-05-20T01:28:00.892Z,19.59
2023-05-20T01:29:06.032Z,19.62
2023-05-20T01:30:10.697Z,19.64
2023-05-20T01:32:37.873Z,19.70
2023-05-20T01:33:42.944Z,19.56
2023-05-20T01:35:59.299Z,19.65
2023-05-20T01:37:03.601Z,19.55
2023-05-20T01:38:06.637Z,19.56
2023-05-20T01:39:10.872Z,19.58
2023-05-20T01:40:15.548Z,19.59
2023-05-20T01:41:18.090Z,19.60
2023-05-20T01:42:21.345Z,19.59
2023-05-20T01:43:25.738Z,19.62
2023-05-20T01:44:28.223Z,19.62
2023-05-20T01:45:31.330Z,19.61
2023-05-20T01:46:35.981Z,19.64
2023-05-20T01:47:38.464Z,19.65
2023-05-20T01:48:40.685Z,19.65
2023-05-20T01:49:44.195Z,19.66
2023-05-20T01:50:47.156Z,19.61
2023-05-20T01:51:49.433Z,19.59
2023-05-20T01:52:51.750Z,19.58
2023-05-20T01:53:53.744Z,19.58
2023-05-20T01:54:56.064Z,19.60
2023-05-20T01:55:58.355Z,19.62
2023-05-20T01:57:01.383Z,19.65
2023-05-20T01:58:04.335Z,19.67
2023-05-20T01:59:06.814Z,19.69
2023-05-20T02:00:11.693Z,19.71
2023-05-20T02:01:16.823Z,19.72
2023-05-20T02:02:19.460Z,19.74
2023-05-20T02:03:22.360Z,19.78
2023-05-20T02:04:24.803Z,19.79
2023-05-20T02:05:27.446Z,19.82
2023-05-20T02:06:30.095Z,19.84
2023-05-20T02:07:32.398Z,19.85
2023-05-20T02:08:34.718Z,19.85
2023-05-20T02:09:37.534Z,19.86
2023-05-20T02:10:39.905Z,19.85
2023-05-20T02:11:42.235Z,19.86
2023-05-20T02:12:44.524Z,19.85
2023-05-20T02:13:47.407Z,19.84
2023-05-20T02:14:50.071Z,19.83
2023-05-20T02:15:53.213Z,19.82
2023-05-20T02:16:55.744Z,19.82
2023-05-20T02:17:59.422Z,19.80
2023-05-20T02:19:01.885Z,19.74
2023-05-20T02:20:06.255Z,19.71
2023-05-20T02:21:09.529Z,19.70
2023-05-20T02:22:14.061Z,19.69
2023-05-20T02:23:16.196Z,19.62
2023-05-20T02:24:19.640Z,19.56
2023-05-20T02:25:23.376Z,19.53
2023-05-20T02:26:25.503Z,19.50
2023-05-20T02:27:27.766Z,19.46
2023-05-20T02:28:29.961Z,19.42
2023-05-20T02:29:32.216Z,19.35
2023-05-20T02:30:34.357Z,19.32
2023-05-20T02:31:37.697Z,19.27
2023-05-20T02:32:40.024Z,19.23
2023-05-20T02:33:43.170Z,19.19
2023-05-20T02:34:45.672Z,19.16
2023-05-20T02:35:48.022Z,19.16
2023-05-20T02:36:50.229Z,19.17
2023-05-20T02:37:52.590Z,19.19
2023-05-20T02:38:54.871Z,19.22
2023-05-20T02:39:57.090Z,19.25
2023-05-20T02:40:59.823Z,19.27
2023-05-20T02:42:02.155Z,19.28
2023-05-20T02:43:05.016Z,19.27
2023-05-20T02:44:09.134Z,19.26
2023-05-20T02:45:12.546Z,19.25
2023-05-20T02:46:16.057Z,19.27
2023-05-20T02:47:19.046Z,19.25
2023-05-20T02:48:22.266Z,19.22
2023-05-20T02:49:24.655Z,19.18
2023-05-20T02:50:27.528Z,19.17
2023-05-20T02:51:29.833Z,19.18
2023-05-20T02:52:31.945Z,19.14
2023-05-20T02:53:34.223Z,19.11
2023-05-20T02:54:36.524Z,19.12
2023-05-20T02:55:40.303Z,19.15
2023-05-20T02:56:42.523Z,19.18
2023-05-20T02:57:45.847Z,19.23
2023-05-20T02:58:50.082Z,19.21
2023-05-20T02:59:52.685Z,19.19
2023-05-20T03:00:56.626Z,19.18
2023-05-20T03:01:59.397Z,19.19
2023-05-20T03:03:02.068Z,19.22
2023-05-20T03:04:04.534Z,19.19
2023-05-20T03:05:07.386Z,19.20
2023-05-20T03:06:11.140Z,19.23
2023-05-20T03:07:13.384Z,19.27
2023-05-20T03:08:15.682Z,19.32
2023-05-20T03:09:17.985Z,19.36
2023-05-20T03:10:20.288Z,19.41
2023-05-20T03:11:22.628Z,19.43
2023-05-20T03:12:25.077Z,19.46
2023-05-20T03:13:28.200Z,19.49
2023-05-20T03:14:30.593Z,19.49
2023-05-20T03:15:33.164Z,19.44
2023-05-20T03:16:36.204Z,19.38
2023-05-20T03:17:38.709Z,19.36
2023-05-20T03:18:41.130Z,19.35
2023-05-20T03:19:43.418Z,19.37
2023-05-20T03:20:46.579Z,19.41
2023-05-20T03:21:48.888Z,19.46
2023-05-20T03:22:51.221Z,19.50
2023-05-20T03:23:53.804Z,19.55
2023-05-20T03:24:56.448Z,19.58
2023-05-20T03:25:58.738Z,19.63
2023-05-20T03:27:01.092Z,19.64
2023-05-20T03:28:03.394Z,19.65
2023-05-20T03:29:06.420Z,19.66
2023-05-20T03:30:10.938Z,19.69
2023-05-20T03:31:13.429Z,19.67
2023-05-20T03:32:15.993Z,19.64
2023-05-20T03:33:18.751Z,19.61
2023-05-20T03:34:21.234Z,19.60
2023-05-20T03:35:25.217Z,19.60
2023-05-20T03:36:28.268Z,19.56
2023-05-20T03:37:30.603Z,19.49
2023-05-20T03:38:32.829Z,19.44
2023-05-20T03:39:35.354Z,19.38
2023-05-20T03:40:38.925Z,19.33
2023-05-20T03:41:41.537Z,19.28
2023-05-20T03:42:45.548Z,19.23
2023-05-20T03:43:48.240Z,19.18
2023-05-20T03:44:51.680Z,19.11
2023-05-20T03:45:54.162Z,19.06
2023-05-20T03:46:57.946Z,19.01
2023-05-20T03:48:00.641Z,19.00
2023-05-20T03:49:04.717Z,18.97
2023-05-20T03:50:09.060Z,18.97
2023-05-20T03:51:11.490Z,18.98
2023-05-20T03:52:14.229Z,18.96
2023-05-20T03:53:16.899Z,18.96
2023-05-20T03:54:19.634Z,18.96
2023-05-20T03:55:23.965Z,18.98
2023-05-20T03:56:26.281Z,18.99
2023-05-20T03:57:28.618Z,19.02
2023-05-20T03:58:30.852Z,19.06
2023-05-20T03:59:33.109Z,19.10
2023-05-20T04:00:35.559Z,19.11
2023-05-20T04:02:50.248Z,19.21
2023-05-20T04:03:53.870Z,19.10
2023-05-20T04:04:56.707Z,19.13
2023-05-20T04:05:59.166Z,19.16
2023-05-20T04:07:01.845Z,19.23
2023-05-20T04:08:05.131Z,19.33
2023-05-20T04:09:07.339Z,19.44
2023-05-20T04:10:11.648Z,19.55
2023-05-20T04:11:16.307Z,19.69
2023-05-20T04:12:18.628Z,19.84
2023-05-20T04:13:21.256Z,19.97
2023-05-20T04:14:23.852Z,20.07
2023-05-20T04:15:26.492Z,20.11
2023-05-20T04:16:30.682Z,20.11
2023-05-20T04:17:33.126Z,20.18
2023-05-20T04:18:35.647Z,20.27
2023-05-20T04:19:38.078Z,20.31
2023-05-20T04:20:41.688Z,20.31
2023-05-20T04:21:45.608Z,20.25
2023-05-20T04:22:47.945Z,20.17
2023-05-20T04:23:50.651Z,20.09
2023-05-20T04:24:53.366Z,20.07
2023-05-20T04:25:57.095Z,20.02
2023-05-20T04:26:59.482Z,19.98
2023-05-20T04:28:03.852Z,19.97
2023-05-20T04:29:07.705Z,19.94
2023-05-20T04:30:14.144Z,19.92
2023-05-20T04:31:16.732Z,19.89
2023-05-20T04:32:19.320Z,19.83
2023-05-20T04:33:23.551Z,19.80
2023-05-20T04:34:30.426Z,19.75
2023-05-20T04:35:33.068Z,19.73
2023-05-20T04:36:37.719Z,19.69
2023-05-20T04:37:40.284Z,19.63
2023-05-20T04:38:42.574Z,19.60
2023-05-20T04:39:44.771Z,19.58
2023-05-20T04:40:48.949Z,19.54
2023-05-20T04:41:51.876Z,19.49
2023-05-20T04:42:55.273Z,19.43
2023-05-20T04:43:57.725Z,19.41
2023-05-20T04:45:00.169Z,19.39
2023-05-20T04:46:03.185Z,19.37
2023-05-20T04:47:06.040Z,19.39
2023-05-20T04:48:08.511Z,19.41
2023-05-20T04:49:11.684Z,19.47
2023-05-20T04:50:14.423Z,19.52
2023-05-20T04:51:16.776Z,19.56
2023-05-20T04:52:19.167Z,19.56
2023-05-20T04:53:22.572Z,19.56
2023-05-20T04:54:24.814Z,19.55
2023-05-20T04:55:27.173Z,19.55
2023-05-20T04:56:29.845Z,19.58
2023-05-20T04:57:32.606Z,19.60
2023-05-20T04:58:35.263Z,19.65
2023-05-20T04:59:37.560Z,19.67
2023-05-20T05:00:40.636Z,19.68
2023-05-20T05:01:44.154Z,19.66
2023-05-20T05:02:46.913Z,19.61
2023-05-20T05:03:49.459Z,19.55
2023-05-20T05:04:51.686Z,19.53
2023-05-20T05:05:58.004Z,19.51
2023-05-20T05:07:01.447Z,19.53
2023-05-20T05:08:04.962Z,19.56
2023-05-20T05:09:07.483Z,19.56
2023-05-20T05:10:13.022Z,19.59
2023-05-20T05:11:15.735Z,19.63
2023-05-20T05:12:18.464Z,19.72
2023-05-20T05:13:20.902Z,19.89
2023-05-20T05:14:23.872Z,20.11
2023-05-20T05:15:33.465Z,20.36
2023-05-20T05:16:37.907Z,20.62
2023-05-20T05:17:40.266Z,20.91
2023-05-20T05:18:43.217Z,21.18
2023-05-20T05:19:46.156Z,21.49
2023-05-20T05:20:48.864Z,21.79
2023-05-20T05:21:52.353Z,22.04
2023-05-20T05:22:54.696Z,22.26
2023-05-20T05:23:58.465Z,22.44
2023-05-20T05:25:01.549Z,22.63
2023-05-20T05:26:04.513Z,22.81
2023-05-20T05:27:07.819Z,23.01
2023-05-20T05:28:11.243Z,23.22
2023-05-20T05:29:14.432Z,23.45
2023-05-20T05:30:17.213Z,23.70
2023-05-20T05:31:19.738Z,23.94
2023-05-20T05:32:22.157Z,24.10
2023-05-20T05:33:24.761Z,24.17
2023-05-20T05:34:27.555Z,24.29
2023-05-20T05:35:30.342Z,24.44
2023-05-20T05:36:33.560Z,24.55
2023-05-20T05:37:37.001Z,24.67
2023-05-20T05:38:40.080Z,24.75
2023-05-20T05:39:43.343Z,24.82
2023-05-20T05:40:46.267Z,24.80
2023-05-20T05:41:48.543Z,24.72
2023-05-20T05:42:50.644Z,24.67
2023-05-20T05:43:55.170Z,24.61
2023-05-20T05:44:58.110Z,24.56
2023-05-20T05:46:01.174Z,24.54
2023-05-20T05:47:05.273Z,24.51
2023-05-20T05:48:08.746Z,24.52
2023-05-20T05:49:11.430Z,24.52
2023-05-20T05:50:15.353Z,24.55
2023-05-20T05:51:18.590Z,24.59
2023-05-20T05:52:22.074Z,24.66
2023-05-20T05:53:25.321Z,24.75
2023-05-20T05:54:28.384Z,24.87
2023-05-20T05:55:30.964Z,25.00
2023-05-20T05:56:33.551Z,25.14
2023-05-20T05:57:35.626Z,25.27
2023-05-20T05:58:39.519Z,25.41
2023-05-20T05:59:41.868Z,25.57
2023-05-20T06:00:45.109Z,25.72
2023-05-20T06:01:48.294Z,25.88
2023-05-20T06:02:51.170Z,26.04
2023-05-20T06:03:58.454Z,26.21
2023-05-20T06:05:04.802Z,26.38
2023-05-20T06:06:07.416Z,26.50
2023-05-20T06:07:10.175Z,26.63
2023-05-20T06:08:12.932Z,26.73
2023-05-20T06:09:16.444Z,26.84
2023-05-20T06:10:19.367Z,26.92
2023-05-20T06:11:21.822Z,26.90
2023-05-20T06:12:24.150Z,26.84
2023-05-20T06:13:28.141Z,26.69
2023-05-20T06:14:33.075Z,26.49
2023-05-20T06:15:35.616Z,26.26
2023-05-20T06:16:38.472Z,26.03
2023-05-20T06:17:42.566Z,25.80
2023-05-20T06:18:48.507Z,25.53
2023-05-20T06:19:51.344Z,25.24
2023-05-20T06:20:55.760Z,25.02
2023-05-20T06:21:57.931Z,24.87
2023-05-20T06:23:00.044Z,24.76
2023-05-20T06:24:05.417Z,24.65
2023-05-20T06:25:10.199Z,24.57
2023-05-20T06:26:12.745Z,24.47
2023-05-20T06:27:14.941Z,24.35
2023-05-20T06:28:17.562Z,24.26
2023-05-20T06:29:19.912Z,24.18
2023-05-20T06:30:22.359Z,24.13
2023-05-20T06:31:24.743Z,24.06
2023-05-20T06:32:27.869Z,23.98
2023-05-20T06:33:31.955Z,23.81
2023-05-20T06:34:36.131Z,23.72
2023-05-20T06:35:38.413Z,23.66
2023-05-20T06:36:40.677Z,23.62
2023-05-20T06:37:44.928Z,23.46
2023-05-20T06:38:47.665Z,23.29
2023-05-20T06:39:52.494Z,23.15
2023-05-20T06:40:55.977Z,23.03
2023-05-20T06:41:58.299Z,22.83
2023-05-20T06:43:02.621Z,22.72
2023-05-20T06:45:29.176Z,22.67
2023-05-20T06:46:35.280Z,22.50
2023-05-20T06:47:39.462Z,22.48
2023-05-20T06:48:43.619Z,22.43
2023-05-20T06:49:47.517Z,22.33
2023-05-20T06:50:52.144Z,22.21
2023-05-20T06:51:55.429Z,22.11
2023-05-20T06:52:58.172Z,22.05
2023-05-20T06:54:00.587Z,22.08
2023-05-20T06:55:04.644Z,22.11
2023-05-20T06:56:08.258Z,22.18
2023-05-20T06:57:10.543Z,22.25
2023-05-20T06:58:12.885Z,22.30
2023-05-20T06:59:15.168Z,22.38
2023-05-20T07:00:19.204Z,22.47
2023-05-20T07:01:22.872Z,22.59
2023-05-20T07:02:25.608Z,22.71
2023-05-20T07:03:29.906Z,22.84
2023-05-20T07:04:33.514Z,22.98
2023-05-20T07:05:36.068Z,23.13
2023-05-20T07:06:40.056Z,23.25
2023-05-20T07:07:42.439Z,23.38
2023-05-20T07:08:44.965Z,23.49
2023-05-20T07:09:49.720Z,23.59
2023-05-20T07:10:52.908Z,23.70
2023-05-20T07:11:57.592Z,23.79
2023-05-20T07:13:00.554Z,23.85
2023-05-20T07:14:03.020Z,23.92
2023-05-20T07:15:07.856Z,24.00
2023-05-20T07:16:11.048Z,24.08
2023-05-20T07:17:15.757Z,24.13
2023-05-20T07:18:19.838Z,24.15
2023-05-20T07:19:24.192Z,24.20
2023-05-20T07:20:27.362Z,24.26
2023-05-20T07:21:31.737Z,24.32
2023-05-20T07:22:39.748Z,24.38
2023-05-20T07:23:43.952Z,24.45
2023-05-20T07:24:46.239Z,24.53
2023-05-20T07:25:49.623Z,24.58
2023-05-20T07:26:52.091Z,24.61
2023-05-20T07:27:54.515Z,24.62
2023-05-20T07:28:57.753Z,24.64
2023-05-20T07:30:00.203Z,24.66
2023-05-20T07:31:03.580Z,24.68
2023-05-20T07:32:08.862Z,24.71
2023-05-20T07:33:13.165Z,24.73
2023-05-20T07:34:15.795Z,24.73
2023-05-20T07:35:19.224Z,24.73
2023-05-20T07:36:22.098Z,24.71
2023-05-20T07:37:26.705Z,24.72
2023-05-20T07:38:29.400Z,24.72
2023-05-20T07:39:33.499Z,24.78
2023-05-20T07:40:37.003Z,24.82
2023-05-20T07:41:46.542Z,24.83
2023-05-20T07:42:52.981Z,24.86
2023-05-20T07:43:56.808Z,24.87
2023-05-20T07:45:02.531Z,24.89
2023-05-20T07:46:05.832Z,24.91
2023-05-20T07:47:08.476Z,24.93
2023-05-20T07:48:10.888Z,24.96
2023-05-20T07:49:14.311Z,24.98
2023-05-20T07:50:16.896Z,25.02
2023-05-20T07:51:19.284Z,25.07
2023-05-20T07:52:21.712Z,25.12
2023-05-20T07:53:25.945Z,25.17
2023-05-20T07:54:28.657Z,25.24
2023-05-20T07:56:43.535Z,25.52
2023-05-20T07:57:47.396Z,25.45
2023-05-20T08:00:15.478Z,25.62
2023-05-20T08:01:25.587Z,25.48
2023-05-20T08:02:29.635Z,25.44
2023-05-20T08:03:33.644Z,25.40
2023-05-20T08:04:41.741Z,25.37
2023-05-20T08:06:58.944Z,25.53
2023-05-20T08:08:07.382Z,25.40
2023-05-20T08:09:13.223Z,25.41
2023-05-20T08:10:22.701Z,25.42
2023-05-20T08:11:25.328Z,25.45
2023-05-20T08:12:27.704Z,25.47
2023-05-20T08:13:30.126Z,25.47
2023-05-20T08:14:32.955Z,25.49
2023-05-20T08:15:37.131Z,25.49
2023-05-20T08:16:42.709Z,25.43
2023-05-20T08:17:45.134Z,25.36
2023-05-20T08:18:47.686Z,25.34
2023-05-20T08:19:49.954Z,25.33
2023-05-20T08:20:52.436Z,25.33
2023-05-20T08:21:56.762Z,25.33
2023-05-20T08:23:02.450Z,25.32
2023-05-20T08:24:06.391Z,25.30
2023-05-20T08:25:10.777Z,25.27
2023-05-20T08:26:13.649Z,25.29
2023-05-20T08:27:17.375Z,25.34
2023-05-20T08:28:20.980Z,25.42
2023-05-20T08:29:24.786Z,25.51
2023-05-20T08:31:30.547Z,25.61
2023-05-20T08:32:32.952Z,25.63
2023-05-20T08:33:35.270Z,25.66
2023-05-20T08:34:37.569Z,25.68
2023-05-20T08:35:42.757Z,25.72
2023-05-20T08:36:45.645Z,25.77
2023-05-20T08:37:48.197Z,25.78
2023-05-20T08:38:53.275Z,25.81
2023-05-20T08:39:55.944Z,25.86
2023-05-20T08:40:58.682Z,25.87
2023-05-20T08:42:01.730Z,25.90
2023-05-20T08:43:04.579Z,25.95
2023-05-20T08:44:07.945Z,25.97
2023-05-20T08:45:11.844Z,25.97
2023-05-20T08:46:18.198Z,25.97
2023-05-20T08:47:26.548Z,25.99
2023-05-20T08:48:31.856Z,26.02
2023-05-20T08:49:38.378Z,26.07
2023-05-20T08:50:41.236Z,26.11
2023-05-20T08:51:46.171Z,26.14
2023-05-20T08:52:49.808Z,26.15
2023-05-20T08:53:53.013Z,26.18
2023-05-20T08:54:56.697Z,26.21
2023-05-20T08:56:04.026Z,26.21
2023-05-20T08:57:06.471Z,26.18
2023-05-20T08:58:15.493Z,26.12
2023-05-20T08:59:19.566Z,26.09
2023-05-20T09:00:24.196Z,26.07
2023-05-20T09:01:27.922Z,26.10
2023-05-20T09:02:31.024Z,26.12
2023-05-20T09:03:37.241Z,26.16
2023-05-20T09:04:45.880Z,26.14
2023-05-20T09:05:48.478Z,26.13
2023-05-20T09:06:50.858Z,26.14
2023-05-20T09:07:53.759Z,26.17
2023-05-20T09:09:00.046Z,26.20
2023-05-20T09:10:03.621Z,26.24
2023-05-20T09:11:09.992Z,26.28
2023-05-20T09:12:15.251Z,26.31
2023-05-20T09:13:17.490Z,26.30
2023-05-20T09:14:19.932Z,26.26
2023-05-20T09:15:22.691Z,26.21
2023-05-20T09:16:25.312Z,26.14
2023-05-20T09:17:27.849Z,26.04
2023-05-20T09:18:30.461Z,25.97
2023-05-20T09:19:32.908Z,25.87
2023-05-20T09:20:37.082Z,25.81
2023-05-20T09:21:41.429Z,25.79
2023-05-20T09:22:43.806Z,25.81
2023-05-20T09:23:49.410Z,25.85
2023-05-20T09:24:52.014Z,25.91
2023-05-20T09:25:54.833Z,25.96
2023-05-20T09:26:57.696Z,25.99
2023-05-20T09:28:00.135Z,25.94
2023-05-20T09:29:06.943Z,25.88
2023-05-20T09:30:11.764Z,25.83
2023-05-20T09:31:16.429Z,25.80
2023-05-20T09:32:22.870Z,25.76
2023-05-20T09:33:30.004Z,25.72
2023-05-20T09:34:32.436Z,25.71
2023-05-20T09:35:35.781Z,25.68
2023-05-20T09:36:39.564Z,25.64
2023-05-20T09:37:46.592Z,25.60
2023-05-20T09:38:51.551Z,25.57
2023-05-20T09:40:08.397Z,25.55
2023-05-20T09:41:14.601Z,25.54
2023-05-20T09:42:32.706Z,25.52
2023-05-20T09:43:36.089Z,25.51
2023-05-20T09:44:38.424Z,25.48
2023-05-20T09:45:40.965Z,25.41
2023-05-20T09:46:45.621Z,25.38
2023-05-20T09:47:50.467Z,25.35
2023-05-20T09:48:57.288Z,25.32
2023-05-20T09:50:02.165Z,25.25
2023-05-20T09:51:05.840Z,25.20
2023-05-20T09:52:08.245Z,25.18
2023-05-20T09:53:11.346Z,25.21
2023-05-20T09:54:15.293Z,25.26
2023-05-20T09:55:20.368Z,25.30
2023-05-20T09:56:25.680Z,25.32
2023-05-20T09:58:44.471Z,25.52
2023-05-20T09:59:50.523Z,25.40
2023-05-20T10:00:56.505Z,25.38
2023-05-20T10:01:59.938Z,25.35
2023-05-20T10:03:02.500Z,25.34
2023-05-20T10:04:07.080Z,25.34
2023-05-20T10:06:35.364Z,25.43
2023-05-20T10:08:04.105Z,25.30
2023-05-20T10:09:16.714Z,25.32
2023-05-20T10:10:31.544Z,25.37
2023-05-20T10:11:40.365Z,25.40
2023-05-20T10:14:30.976Z,25.57
2023-05-20T10:15:42.870Z,25.51
2023-05-20T10:16:54.134Z,25.52
2023-05-20T10:18:00.132Z,25.47
2023-05-20T10:19:12.314Z,25.46
2023-05-20T10:20:16.062Z,25.47
2023-05-20T10:21:22.157Z,25.52
2023-05-20T10:22:29.363Z,25.52
2023-05-20T10:23:32.963Z,25.47
2023-05-20T10:24:41.879Z,25.40
2023-05-20T10:25:47.729Z,25.27
2023-05-20T10:26:53.983Z,25.17
2023-05-20T10:28:10.423Z,25.16
2023-05-20T10:29:17.194Z,25.15
2023-05-20T10:30:21.461Z,25.16
2023-05-20T10:31:23.830Z,25.15
2023-05-20T10:33:46.299Z,25.26
2023-05-20T10:34:50.239Z,25.13
2023-05-20T10:35:53.833Z,25.11
2023-05-20T10:36:58.382Z,25.00
2023-05-20T10:38:11.667Z,24.96
2023-05-20T10:39:16.554Z,24.93
2023-05-20T10:40:20.840Z,24.92
2023-05-20T10:41:27.813Z,24.93
2023-05-20T10:42:30.195Z,24.93
2023-05-20T10:43:32.463Z,24.96
2023-05-20T10:44:47.409Z,24.94
2023-05-20T10:45:57.305Z,24.93
2023-05-20T10:47:21.076Z,24.90
2023-05-20T10:48:07.318Z,24.88
2023-05-20T10:49:20.980Z,24.85
2023-05-20T10:51:39.686Z,24.81
2023-05-20T10:52:42.984Z,24.62
2023-05-20T10:53:47.141Z,24.61
2023-05-20T10:56:17.732Z,24.70
2023-05-20T10:57:20.823Z,24.60
2023-05-20T10:58:24.415Z,24.64
2023-05-20T10:59:26.865Z,24.69
2023-05-20T11:00:29.538Z,24.71
2023-05-20T11:01:32.338Z,24.70
2023-05-20T11:03:57.640Z,24.80
2023-05-20T11:05:01.123Z,24.65
2023-05-20T11:06:15.361Z,24.61
2023-05-20T11:07:28.926Z,24.60
2023-05-20T11:08:31.303Z,24.54
2023-05-20T11:09:33.836Z,24.50
2023-05-20T11:10:37.350Z,24.46
2023-05-20T11:11:40.893Z,24.44
2023-05-20T11:13:57.884Z,24.49
2023-05-20T11:15:00.916Z,24.40
2023-05-20T11:16:06.094Z,24.40
2023-05-20T11:17:08.649Z,24.41
2023-05-20T11:18:12.467Z,24.40
2023-05-20T11:19:15.589Z,24.41
2023-05-20T11:20:19.118Z,24.41
2023-05-20T11:21:21.420Z,24.41
2023-05-20T11:22:24.237Z,24.39
2023-05-20T11:23:27.792Z,24.40
2023-05-20T11:24:29.870Z,24.42
2023-05-20T11:25:32.743Z,24.46
2023-05-20T11:26:36.722Z,24.49
2023-05-20T11:27:40.607Z,24.53
2023-05-20T11:28:43.225Z,24.55
2023-05-20T11:29:51.860Z,24.57
2023-05-20T11:30:55.436Z,24.57
2023-05-20T11:31:59.276Z,24.56
2023-05-20T11:33:03.465Z,24.54
2023-05-20T11:34:08.562Z,24.53
2023-05-20T11:35:22.325Z,24.52
2023-05-20T11:36:27.854Z,24.51
2023-05-20T11:37:29.805Z,24.48
2023-05-20T11:38:32.078Z,24.48
2023-05-20T11:39:35.415Z,24.49
2023-05-20T11:42:00.158Z,24.61
2023-05-20T11:43:03.070Z,24.50
2023-05-20T11:44:10.331Z,24.51
2023-05-20T11:45:13.605Z,24.51
2023-05-20T11:46:18.362Z,24.53
2023-05-20T11:47:25.447Z,24.56
2023-05-20T11:48:28.027Z,24.58
2023-05-20T11:49:31.631Z,24.59
2023-05-20T11:50:37.371Z,24.63
2023-05-20T11:51:40.132Z,24.61
2023-05-20T11:52:42.415Z,24.60
2023-05-20T11:53:46.644Z,24.59
2023-05-20T11:54:52.634Z,24.57
2023-05-20T11:55:57.385Z,24.59
2023-05-20T11:57:01.875Z,24.61
2023-05-20T11:58:04.226Z,24.60
2023-05-20T11:59:08.814Z,24.63
2023-05-20T12:00:12.904Z,24.65
2023-05-20T12:01:22.457Z,24.65
2023-05-20T12:02:19.787Z,24.66
2023-05-20T12:04:35.722Z,24.72
2023-05-20T12:05:39.380Z,24.61
2023-05-20T12:06:42.197Z,24.59
2023-05-20T12:07:45.017Z,24.58
2023-05-20T12:08:48.714Z,24.59
2023-05-20T12:09:51.073Z,24.58
2023-05-20T12:10:55.313Z,24.56
2023-05-20T12:11:58.209Z,24.56
2023-05-20T12:13:00.879Z,24.57
2023-05-20T12:14:03.583Z,24.56
2023-05-20T12:15:11.217Z,24.56
2023-05-20T12:16:14.292Z,24.57
2023-05-20T12:17:16.579Z,24.59
2023-05-20T12:18:19.779Z,24.57
2023-05-20T12:19:22.126Z,24.55
2023-05-20T12:20:25.466Z,24.55
2023-05-20T12:21:29.065Z,24.56
2023-05-20T12:23:47.608Z,24.64
2023-05-20T12:24:50.112Z,24.51
2023-05-20T12:25:55.755Z,24.48
2023-05-20T12:26:57.964Z,24.49
2023-05-20T12:28:01.875Z,24.50
2023-05-20T12:29:05.311Z,24.50
2023-05-20T12:30:09.440Z,24.51
2023-05-20T12:31:13.950Z,24.53
2023-05-20T12:32:16.397Z,24.56
2023-05-20T12:33:18.534Z,24.58
2023-05-20T12:34:20.664Z,24.59
2023-05-20T12:35:40.787Z,24.59
2023-05-20T12:36:43.530Z,24.63
2023-05-20T12:38:53.788Z,24.76
2023-05-20T12:39:56.082Z,24.66
2023-05-20T12:40:58.284Z,24.68
2023-05-20T12:42:00.513Z,24.68
2023-05-20T12:43:04.688Z,24.69
2023-05-20T12:44:06.932Z,24.68
2023-05-20T12:45:09.368Z,24.70
2023-05-20T12:46:12.613Z,24.71
2023-05-20T12:47:18.561Z,24.71
2023-05-20T12:48:21.797Z,24.70
2023-05-20T12:49:25.156Z,24.68
2023-05-20T12:50:28.059Z,24.65
2023-05-20T12:51:30.294Z,24.59
2023-05-20T12:52:33.420Z,24.57
2023-05-20T12:53:36.212Z,24.55
2023-05-20T12:54:38.229Z,24.56
2023-05-20T12:55:40.252Z,24.57
2023-05-20T12:56:42.985Z,24.56
2023-05-20T12:57:46.378Z,24.53
2023-05-20T12:58:48.572Z,24.50
2023-05-20T12:59:51.079Z,24.51
2023-05-20T13:00:53.873Z,24.50
2023-05-20T13:01:56.716Z,24.50
2023-05-20T13:04:09.224Z,24.65
2023-05-20T13:05:12.506Z,24.55
2023-05-20T13:06:15.332Z,24.55
2023-05-20T13:08:33.384Z,24.59
2023-05-20T13:09:36.371Z,24.47
2023-05-20T13:10:38.634Z,24.47
2023-05-20T13:11:40.774Z,24.47
2023-05-20T13:12:43.196Z,24.49
2023-05-20T13:15:00.770Z,24.69
2023-05-20T13:16:05.678Z,24.61
2023-05-20T13:17:08.085Z,24.61
2023-05-20T13:18:10.918Z,24.64
2023-05-20T14:07:18.139Z,24.78
2023-05-20T14:17:58.145Z,25.07
2023-05-20T14:19:00.845Z,24.97
2023-05-20T14:20:32.744Z,24.93
2023-05-20T14:21:35.896Z,24.92
2023-05-20T14:22:38.733Z,24.90
2023-05-20T14:23:41.597Z,24.89
2023-05-20T14:24:44.460Z,24.89
2023-05-20T14:25:46.959Z,24.89
2023-05-20T14:40:15.079Z,25.01
2023-05-20T14:41:35.928Z,24.90
2023-05-20T14:42:41.846Z,24.93
2023-05-20T14:43:44.553Z,24.96
2023-05-20T14:44:49.643Z,24.98
2023-05-20T14:45:52.875Z,25.00
2023-05-20T14:46:55.750Z,25.00
2023-05-20T14:47:58.688Z,24.97
2023-05-20T14:50:30.319Z,24.87
2023-05-20T14:51:32.851Z,24.81
2023-05-20T14:52:35.460Z,24.78
2023-05-20T14:54:47.931Z,24.88
2023-05-20T14:55:51.442Z,24.76
2023-05-20T14:56:54.900Z,24.78
2023-05-20T14:57:57.258Z,24.78
2023-05-20T14:58:59.444Z,24.74
2023-05-20T15:01:13.339Z,24.74
2023-05-20T15:02:16.067Z,24.58
2023-05-20T15:03:22.992Z,24.56
2023-05-20T15:04:26.988Z,24.54
2023-05-20T15:05:29.419Z,24.54
2023-05-20T15:06:32.606Z,24.52
2023-05-20T15:07:35.891Z,24.52
2023-05-20T15:08:38.225Z,24.54
2023-05-20T15:09:40.860Z,24.55
2023-05-20T15:10:44.271Z,24.54
2023-05-20T15:11:47.376Z,24.54
2023-05-20T15:12:49.509Z,24.56
2023-05-20T15:13:52.829Z,24.57
2023-05-20T15:14:56.970Z,24.55
2023-05-20T15:16:00.598Z,24.52
2023-05-20T15:18:17.128Z,24.55
2023-05-20T15:19:19.981Z,24.43
2023-05-20T15:20:23.853Z,24.45
2023-05-20T15:21:27.574Z,24.49
2023-05-20T15:22:30.597Z,24.52
2023-05-20T15:23:32.947Z,24.55
2023-05-20T15:24:35.277Z,24.58
2023-05-20T15:25:38.765Z,24.61
2023-05-20T15:26:42.857Z,24.63
2023-05-20T15:29:10.568Z,24.69
2023-05-20T15:30:14.803Z,24.56
2023-05-20T15:31:17.077Z,24.56
2023-05-20T15:32:20.571Z,24.55
2023-05-20T15:33:23.111Z,24.56
2023-05-20T15:34:25.514Z,24.58
2023-05-20T15:35:29.369Z,24.63